sensor_id;sensor_type;location;lat;lon;timestamp;P1;durP1;ratioP1;P2;durP2;ratioP2
75446;SDS011;64024;55.820;37.574;2024-02-28T00:02:11;2.47;;;1.42;;
75446;SDS011;64024;55.820;37.574;2024-02-28T00:04:39;2.63;;;1.50;;
75446;SDS011;64024;55.820;37.574;2024-02-28T00:07:06;3.92;;;2.25;;
75446;SDS011;64024;55.820;37.574;2024-02-28T00:09:32;2.97;;;1.55;;
75446;SDS011;64024;55.820;37.574;2024-02-28T00:11:58;2.63;;;1.90;;
75446;SDS011;64024;55.820;37.574;2024-02-28T00:14:23;2.80;;;1.38;;
75446;SDS011;64024;55.820;37.574;2024-02-28T00:16:49;1.92;;;1.40;;
75446;SDS011;64024;55.820;37.574;2024-02-28T00:19:15;2.60;;;1.50;;
75446;SDS011;64024;55.820;37.574;2024-02-28T00:21:43;2.40;;;1.40;;
75446;SDS011;64024;55.820;37.574;2024-02-28T00:24:09;2.47;;;1.40;;
75446;SDS011;64024;55.820;37.574;2024-02-28T00:26:35;4.22;;;1.65;;
75446;SDS011;64024;55.820;37.574;2024-02-28T00:29:01;3.78;;;1.98;;
75446;SDS011;64024;55.820;37.574;2024-02-28T00:31:27;2.28;;;1.60;;
75446;SDS011;64024;55.820;37.574;2024-02-28T00:33:52;2.22;;;1.40;;
75446;SDS011;64024;55.820;37.574;2024-02-28T00:36:18;2.60;;;1.60;;
75446;SDS011;64024;55.820;37.574;2024-02-28T00:38:44;2.65;;;1.67;;
75446;SDS011;64024;55.820;37.574;2024-02-28T00:41:10;3.05;;;1.50;;
75446;SDS011;64024;55.820;37.574;2024-02-28T00:43:35;2.85;;;1.67;;
75446;SDS011;64024;55.820;37.574;2024-02-28T00:46:01;2.85;;;1.88;;
75446;SDS011;64024;55.820;37.574;2024-02-28T00:48:28;2.30;;;1.40;;
75446;SDS011;64024;55.820;37.574;2024-02-28T00:50:54;2.50;;;1.60;;
75446;SDS011;64024;55.820;37.574;2024-02-28T00:53:20;2.13;;;1.27;;
75446;SDS011;64024;55.820;37.574;2024-02-28T00:55:46;2.33;;;1.30;;
75446;SDS011;64024;55.820;37.574;2024-02-28T00:58:11;2.30;;;1.20;;
75446;SDS011;64024;55.820;37.574;2024-02-28T01:00:37;3.42;;;2.20;;
75446;SDS011;64024;55.820;37.574;2024-02-28T01:03:03;2.38;;;1.25;;
75446;SDS011;64024;55.820;37.574;2024-02-28T01:05:29;3.42;;;1.73;;
75446;SDS011;64024;55.820;37.574;2024-02-28T01:07:55;2.88;;;1.52;;
75446;SDS011;64024;55.820;37.574;2024-02-28T01:10:21;3.22;;;1.95;;
75446;SDS011;64024;55.820;37.574;2024-02-28T01:12:48;2.45;;;1.45;;
75446;SDS011;64024;55.820;37.574;2024-02-28T01:15:13;2.20;;;1.40;;
75446;SDS011;64024;55.820;37.574;2024-02-28T01:17:39;2.47;;;1.55;;
75446;SDS011;64024;55.820;37.574;2024-02-28T01:20:05;2.90;;;1.40;;
75446;SDS011;64024;55.820;37.574;2024-02-28T01:22:33;3.90;;;1.73;;
75446;SDS011;64024;55.820;37.574;2024-02-28T01:24:59;2.63;;;1.90;;
75446;SDS011;64024;55.820;37.574;2024-02-28T01:27:24;3.15;;;1.70;;
75446;SDS011;64024;55.820;37.574;2024-02-28T01:29:50;3.10;;;1.10;;
75446;SDS011;64024;55.820;37.574;2024-02-28T01:32:17;3.40;;;2.15;;
75446;SDS011;64024;55.820;37.574;2024-02-28T01:34:43;2.05;;;1.08;;
75446;SDS011;64024;55.820;37.574;2024-02-28T01:37:08;2.58;;;1.60;;
75446;SDS011;64024;55.820;37.574;2024-02-28T01:39:34;2.75;;;2.03;;
75446;SDS011;64024;55.820;37.574;2024-02-28T01:42:00;2.70;;;1.42;;
75446;SDS011;64024;55.820;37.574;2024-02-28T01:44:26;2.83;;;1.60;;
75446;SDS011;64024;55.820;37.574;2024-02-28T01:46:51;2.85;;;1.50;;
75446;SDS011;64024;55.820;37.574;2024-02-28T01:49:19;2.92;;;1.38;;
75446;SDS011;64024;55.820;37.574;2024-02-28T01:51:47;2.55;;;1.42;;
75446;SDS011;64024;55.820;37.574;2024-02-28T01:54:13;3.03;;;1.35;;
75446;SDS011;64024;55.820;37.574;2024-02-28T01:56:39;2.45;;;1.63;;
75446;SDS011;64024;55.820;37.574;2024-02-28T01:59:06;2.90;;;1.90;;
75446;SDS011;64024;55.820;37.574;2024-02-28T02:01:35;2.40;;;1.58;;
75446;SDS011;64024;55.820;37.574;2024-02-28T02:04:01;2.53;;;1.40;;
75446;SDS011;64024;55.820;37.574;2024-02-28T02:06:29;2.22;;;1.30;;
75446;SDS011;64024;55.820;37.574;2024-02-28T02:08:55;2.70;;;1.40;;
75446;SDS011;64024;55.820;37.574;2024-02-28T02:11:21;3.83;;;1.33;;
75446;SDS011;64024;55.820;37.574;2024-02-28T02:13:47;2.40;;;1.17;;
75446;SDS011;64024;55.820;37.574;2024-02-28T02:16:14;2.92;;;1.38;;
75446;SDS011;64024;55.820;37.574;2024-02-28T02:18:40;2.28;;;1.38;;
75446;SDS011;64024;55.820;37.574;2024-02-28T02:21:06;2.67;;;1.40;;
75446;SDS011;64024;55.820;37.574;2024-02-28T02:23:33;3.63;;;1.20;;
75446;SDS011;64024;55.820;37.574;2024-02-28T02:26:00;3.47;;;2.20;;
75446;SDS011;64024;55.820;37.574;2024-02-28T02:28:26;2.33;;;1.35;;
75446;SDS011;64024;55.820;37.574;2024-02-28T02:30:52;2.95;;;1.50;;
75446;SDS011;64024;55.820;37.574;2024-02-28T02:33:18;2.75;;;1.40;;
75446;SDS011;64024;55.820;37.574;2024-02-28T02:35:44;2.03;;;1.17;;
75446;SDS011;64024;55.820;37.574;2024-02-28T02:38:10;2.30;;;1.50;;
75446;SDS011;64024;55.820;37.574;2024-02-28T02:40:35;3.22;;;1.63;;
75446;SDS011;64024;55.820;37.574;2024-02-28T02:43:01;2.50;;;1.33;;
75446;SDS011;64024;55.820;37.574;2024-02-28T02:45:27;2.53;;;1.25;;
75446;SDS011;64024;55.820;37.574;2024-02-28T02:47:53;3.80;;;2.20;;
75446;SDS011;64024;55.820;37.574;2024-02-28T02:50:18;3.00;;;1.60;;
75446;SDS011;64024;55.820;37.574;2024-02-28T02:52:44;2.72;;;1.58;;
75446;SDS011;64024;55.820;37.574;2024-02-28T02:55:10;2.95;;;1.50;;
75446;SDS011;64024;55.820;37.574;2024-02-28T02:57:35;3.47;;;1.60;;
75446;SDS011;64024;55.820;37.574;2024-02-28T03:00:01;3.72;;;1.75;;
75446;SDS011;64024;55.820;37.574;2024-02-28T03:02:27;2.95;;;1.52;;
75446;SDS011;64024;55.820;37.574;2024-02-28T03:04:52;3.10;;;1.60;;
75446;SDS011;64024;55.820;37.574;2024-02-28T03:07:18;4.53;;;1.58;;
75446;SDS011;64024;55.820;37.574;2024-02-28T03:09:44;4.22;;;1.70;;
75446;SDS011;64024;55.820;37.574;2024-02-28T03:12:10;4.07;;;1.88;;
75446;SDS011;64024;55.820;37.574;2024-02-28T03:14:35;3.40;;;2.00;;
75446;SDS011;64024;55.820;37.574;2024-02-28T03:17:02;2.40;;;1.58;;
75446;SDS011;64024;55.820;37.574;2024-02-28T03:19:27;4.03;;;1.90;;
75446;SDS011;64024;55.820;37.574;2024-02-28T03:21:53;2.75;;;1.65;;
75446;SDS011;64024;55.820;37.574;2024-02-28T03:24:19;2.90;;;1.80;;
75446;SDS011;64024;55.820;37.574;2024-02-28T03:26:44;2.78;;;1.60;;
75446;SDS011;64024;55.820;37.574;2024-02-28T03:29:10;2.88;;;1.60;;
75446;SDS011;64024;55.820;37.574;2024-02-28T03:31:36;3.92;;;1.85;;
75446;SDS011;64024;55.820;37.574;2024-02-28T03:34:01;3.33;;;1.77;;
75446;SDS011;64024;55.820;37.574;2024-02-28T03:36:28;3.58;;;1.60;;
75446;SDS011;64024;55.820;37.574;2024-02-28T03:38:53;4.55;;;1.73;;
75446;SDS011;64024;55.820;37.574;2024-02-28T03:41:19;4.63;;;1.88;;
75446;SDS011;64024;55.820;37.574;2024-02-28T03:43:45;2.22;;;1.60;;
75446;SDS011;64024;55.820;37.574;2024-02-28T03:46:10;2.83;;;1.52;;
75446;SDS011;64024;55.820;37.574;2024-02-28T03:48:36;3.20;;;1.50;;
75446;SDS011;64024;55.820;37.574;2024-02-28T03:51:02;2.45;;;1.98;;
75446;SDS011;64024;55.820;37.574;2024-02-28T03:53:27;4.40;;;1.70;;
75446;SDS011;64024;55.820;37.574;2024-02-28T03:55:53;4.03;;;1.83;;
75446;SDS011;64024;55.820;37.574;2024-02-28T03:58:19;2.70;;;1.70;;
75446;SDS011;64024;55.820;37.574;2024-02-28T04:00:44;2.95;;;1.77;;
75446;SDS011;64024;55.820;37.574;2024-02-28T04:03:11;3.55;;;1.80;;
75446;SDS011;64024;55.820;37.574;2024-02-28T04:05:39;3.38;;;2.15;;
75446;SDS011;64024;55.820;37.574;2024-02-28T04:08:05;3.47;;;1.88;;
75446;SDS011;64024;55.820;37.574;2024-02-28T04:10:31;4.00;;;2.20;;
75446;SDS011;64024;55.820;37.574;2024-02-28T04:12:56;3.00;;;1.65;;
75446;SDS011;64024;55.820;37.574;2024-02-28T04:15:22;3.22;;;1.60;;
75446;SDS011;64024;55.820;37.574;2024-02-28T04:17:50;4.05;;;2.10;;
75446;SDS011;64024;55.820;37.574;2024-02-28T04:20:17;2.63;;;1.88;;
75446;SDS011;64024;55.820;37.574;2024-02-28T04:22:43;6.03;;;1.98;;
75446;SDS011;64024;55.820;37.574;2024-02-28T04:25:09;3.80;;;2.40;;
75446;SDS011;64024;55.820;37.574;2024-02-28T04:27:35;3.97;;;1.95;;
75446;SDS011;64024;55.820;37.574;2024-02-28T04:30:01;4.63;;;2.00;;
75446;SDS011;64024;55.820;37.574;2024-02-28T04:32:27;4.07;;;2.10;;
75446;SDS011;64024;55.820;37.574;2024-02-28T04:34:53;4.13;;;1.75;;
75446;SDS011;64024;55.820;37.574;2024-02-28T04:37:18;2.92;;;1.42;;
75446;SDS011;64024;55.820;37.574;2024-02-28T04:39:44;2.47;;;1.67;;
75446;SDS011;64024;55.820;37.574;2024-02-28T04:42:10;3.67;;;1.98;;
75446;SDS011;64024;55.820;37.574;2024-02-28T04:44:35;3.22;;;1.35;;
75446;SDS011;64024;55.820;37.574;2024-02-28T04:47:01;3.78;;;2.63;;
75446;SDS011;64024;55.820;37.574;2024-02-28T04:49:27;6.60;;;3.03;;
75446;SDS011;64024;55.820;37.574;2024-02-28T04:51:53;3.95;;;1.95;;
75446;SDS011;64024;55.820;37.574;2024-02-28T04:54:19;3.42;;;1.90;;
75446;SDS011;64024;55.820;37.574;2024-02-28T04:56:44;2.10;;;1.40;;
75446;SDS011;64024;55.820;37.574;2024-02-28T04:59:11;2.75;;;1.70;;
75446;SDS011;64024;55.820;37.574;2024-02-28T05:01:38;3.08;;;1.45;;
75446;SDS011;64024;55.820;37.574;2024-02-28T05:04:05;2.92;;;1.33;;
75446;SDS011;64024;55.820;37.574;2024-02-28T05:06:31;4.70;;;1.65;;
75446;SDS011;64024;55.820;37.574;2024-02-28T05:08:57;2.60;;;1.75;;
75446;SDS011;64024;55.820;37.574;2024-02-28T05:11:23;2.97;;;1.50;;
75446;SDS011;64024;55.820;37.574;2024-02-28T05:13:49;2.58;;;1.45;;
75446;SDS011;64024;55.820;37.574;2024-02-28T05:16:15;2.92;;;1.30;;
75446;SDS011;64024;55.820;37.574;2024-02-28T05:18:41;3.13;;;1.58;;
75446;SDS011;64024;55.820;37.574;2024-02-28T05:21:07;3.03;;;1.60;;
75446;SDS011;64024;55.820;37.574;2024-02-28T05:23:32;2.22;;;1.17;;
75446;SDS011;64024;55.820;37.574;2024-02-28T05:25:59;3.20;;;1.92;;
75446;SDS011;64024;55.820;37.574;2024-02-28T05:28:29;4.63;;;1.75;;
75446;SDS011;64024;55.820;37.574;2024-02-28T05:33:22;3.17;;;1.85;;
75446;SDS011;64024;55.820;37.574;2024-02-28T05:35:48;2.88;;;1.45;;
75446;SDS011;64024;55.820;37.574;2024-02-28T05:38:15;3.00;;;1.70;;
75446;SDS011;64024;55.820;37.574;2024-02-28T05:40:41;2.75;;;1.58;;
75446;SDS011;64024;55.820;37.574;2024-02-28T05:43:07;2.70;;;1.60;;
75446;SDS011;64024;55.820;37.574;2024-02-28T05:45:33;3.42;;;1.85;;
75446;SDS011;64024;55.820;37.574;2024-02-28T05:47:58;8.43;;;3.28;;
75446;SDS011;64024;55.820;37.574;2024-02-28T05:50:25;5.50;;;2.03;;
75446;SDS011;64024;55.820;37.574;2024-02-28T05:52:51;3.13;;;1.55;;
75446;SDS011;64024;55.820;37.574;2024-02-28T05:55:17;2.72;;;1.60;;
75446;SDS011;64024;55.820;37.574;2024-02-28T05:57:43;2.55;;;1.70;;
75446;SDS011;64024;55.820;37.574;2024-02-28T06:00:09;3.15;;;1.65;;
75446;SDS011;64024;55.820;37.574;2024-02-28T06:02:38;3.05;;;1.80;;
75446;SDS011;64024;55.820;37.574;2024-02-28T06:05:04;3.80;;;1.40;;
75446;SDS011;64024;55.820;37.574;2024-02-28T06:07:30;2.90;;;2.08;;
75446;SDS011;64024;55.820;37.574;2024-02-28T06:09:56;2.50;;;1.63;;
75446;SDS011;64024;55.820;37.574;2024-02-28T06:12:22;3.20;;;1.92;;
75446;SDS011;64024;55.820;37.574;2024-02-28T06:14:47;4.43;;;2.10;;
75446;SDS011;64024;55.820;37.574;2024-02-28T06:17:13;2.63;;;1.52;;
75446;SDS011;64024;55.820;37.574;2024-02-28T06:19:39;3.08;;;2.08;;
75446;SDS011;64024;55.820;37.574;2024-02-28T06:22:04;3.05;;;1.90;;
75446;SDS011;64024;55.820;37.574;2024-02-28T06:24:33;3.55;;;2.03;;
75446;SDS011;64024;55.820;37.574;2024-02-28T06:27:00;2.78;;;1.70;;
75446;SDS011;64024;55.820;37.574;2024-02-28T06:29:25;3.33;;;2.05;;
75446;SDS011;64024;55.820;37.574;2024-02-28T06:32:10;2.67;;;1.67;;
75446;SDS011;64024;55.820;37.574;2024-02-28T06:34:35;2.88;;;1.60;;
75446;SDS011;64024;55.820;37.574;2024-02-28T06:37:01;3.22;;;1.88;;
75446;SDS011;64024;55.820;37.574;2024-02-28T06:39:26;3.75;;;1.90;;
75446;SDS011;64024;55.820;37.574;2024-02-28T06:41:52;2.92;;;2.15;;
75446;SDS011;64024;55.820;37.574;2024-02-28T06:44:18;3.17;;;2.20;;
75446;SDS011;64024;55.820;37.574;2024-02-28T06:46:44;3.17;;;2.00;;
75446;SDS011;64024;55.820;37.574;2024-02-28T06:49:10;3.10;;;1.88;;
75446;SDS011;64024;55.820;37.574;2024-02-28T06:51:35;4.13;;;2.55;;
75446;SDS011;64024;55.820;37.574;2024-02-28T06:54:01;4.97;;;2.50;;
75446;SDS011;64024;55.820;37.574;2024-02-28T06:56:27;2.95;;;2.13;;
75446;SDS011;64024;55.820;37.574;2024-02-28T06:58:53;4.30;;;3.03;;
75446;SDS011;64024;55.820;37.574;2024-02-28T07:01:18;4.35;;;2.42;;
75446;SDS011;64024;55.820;37.574;2024-02-28T07:03:44;5.80;;;2.90;;
75446;SDS011;64024;55.820;37.574;2024-02-28T07:06:10;4.30;;;2.47;;
75446;SDS011;64024;55.820;37.574;2024-02-28T07:08:37;5.25;;;2.10;;
75446;SDS011;64024;55.820;37.574;2024-02-28T07:11:03;4.20;;;2.50;;
75446;SDS011;64024;55.820;37.574;2024-02-28T07:13:29;4.60;;;2.67;;
75446;SDS011;64024;55.820;37.574;2024-02-28T07:15:55;4.68;;;2.55;;
75446;SDS011;64024;55.820;37.574;2024-02-28T07:18:23;3.00;;;2.08;;
75446;SDS011;64024;55.820;37.574;2024-02-28T07:20:53;3.13;;;1.70;;
75446;SDS011;64024;55.820;37.574;2024-02-28T07:23:19;3.10;;;2.00;;
75446;SDS011;64024;55.820;37.574;2024-02-28T07:25:45;3.63;;;2.17;;
75446;SDS011;64024;55.820;37.574;2024-02-28T07:28:11;4.53;;;2.13;;
75446;SDS011;64024;55.820;37.574;2024-02-28T07:30:37;4.78;;;2.30;;
75446;SDS011;64024;55.820;37.574;2024-02-28T07:33:04;4.90;;;3.00;;
75446;SDS011;64024;55.820;37.574;2024-02-28T07:35:30;2.60;;;2.15;;
75446;SDS011;64024;55.820;37.574;2024-02-28T07:37:56;3.75;;;2.63;;
75446;SDS011;64024;55.820;37.574;2024-02-28T07:40:22;3.10;;;2.22;;
75446;SDS011;64024;55.820;37.574;2024-02-28T07:42:47;4.95;;;2.20;;
75446;SDS011;64024;55.820;37.574;2024-02-28T07:45:13;3.72;;;1.92;;
75446;SDS011;64024;55.820;37.574;2024-02-28T07:47:38;6.18;;;2.40;;
75446;SDS011;64024;55.820;37.574;2024-02-28T07:50:08;4.25;;;2.67;;
75446;SDS011;64024;55.820;37.574;2024-02-28T07:52:34;3.92;;;1.83;;
75446;SDS011;64024;55.820;37.574;2024-02-28T07:55:00;4.47;;;2.40;;
75446;SDS011;64024;55.820;37.574;2024-02-28T07:57:27;3.30;;;1.88;;
75446;SDS011;64024;55.820;37.574;2024-02-28T07:59:53;3.63;;;1.83;;
75446;SDS011;64024;55.820;37.574;2024-02-28T08:02:18;4.55;;;2.30;;
75446;SDS011;64024;55.820;37.574;2024-02-28T08:04:45;5.13;;;2.15;;
75446;SDS011;64024;55.820;37.574;2024-02-28T08:07:11;4.05;;;2.63;;
75446;SDS011;64024;55.820;37.574;2024-02-28T08:09:37;6.53;;;2.97;;
75446;SDS011;64024;55.820;37.574;2024-02-28T08:12:03;4.45;;;2.80;;
75446;SDS011;64024;55.820;37.574;2024-02-28T08:14:29;5.15;;;2.58;;
75446;SDS011;64024;55.820;37.574;2024-02-28T08:16:55;5.30;;;3.00;;
75446;SDS011;64024;55.820;37.574;2024-02-28T08:19:20;3.85;;;2.50;;
75446;SDS011;64024;55.820;37.574;2024-02-28T08:21:46;7.85;;;3.15;;
75446;SDS011;64024;55.820;37.574;2024-02-28T08:24:12;3.83;;;2.50;;
75446;SDS011;64024;55.820;37.574;2024-02-28T08:26:38;4.25;;;2.67;;
75446;SDS011;64024;55.820;37.574;2024-02-28T08:29:06;4.78;;;2.33;;
75446;SDS011;64024;55.820;37.574;2024-02-28T08:31:32;4.78;;;2.75;;
75446;SDS011;64024;55.820;37.574;2024-02-28T08:33:57;4.80;;;2.13;;
75446;SDS011;64024;55.820;37.574;2024-02-28T08:36:23;4.68;;;2.65;;
75446;SDS011;64024;55.820;37.574;2024-02-28T08:38:49;4.35;;;2.72;;
75446;SDS011;64024;55.820;37.574;2024-02-28T08:41:16;4.03;;;2.80;;
75446;SDS011;64024;55.820;37.574;2024-02-28T08:43:42;3.60;;;2.45;;
75446;SDS011;64024;55.820;37.574;2024-02-28T08:46:13;6.95;;;2.50;;
75446;SDS011;64024;55.820;37.574;2024-02-28T08:48:41;5.88;;;2.40;;
75446;SDS011;64024;55.820;37.574;2024-02-28T08:51:07;4.47;;;2.33;;
75446;SDS011;64024;55.820;37.574;2024-02-28T08:53:33;4.68;;;2.33;;
75446;SDS011;64024;55.820;37.574;2024-02-28T08:55:59;4.20;;;2.58;;
75446;SDS011;64024;55.820;37.574;2024-02-28T08:58:45;4.50;;;2.65;;
75446;SDS011;64024;55.820;37.574;2024-02-28T09:01:14;7.13;;;3.60;;
75446;SDS011;64024;55.820;37.574;2024-02-28T09:03:40;7.65;;;2.58;;
75446;SDS011;64024;55.820;37.574;2024-02-28T09:06:06;5.28;;;2.50;;
75446;SDS011;64024;55.820;37.574;2024-02-28T09:08:32;3.92;;;1.95;;
75446;SDS011;64024;55.820;37.574;2024-02-28T09:10:58;6.93;;;2.70;;
75446;SDS011;64024;55.820;37.574;2024-02-28T09:13:23;4.43;;;2.03;;
75446;SDS011;64024;55.820;37.574;2024-02-28T09:15:49;6.18;;;2.72;;
75446;SDS011;64024;55.820;37.574;2024-02-28T09:18:16;4.35;;;2.15;;
75446;SDS011;64024;55.820;37.574;2024-02-28T09:20:41;3.35;;;2.08;;
75446;SDS011;64024;55.820;37.574;2024-02-28T09:23:07;3.60;;;2.60;;
75446;SDS011;64024;55.820;37.574;2024-02-28T09:25:33;5.00;;;2.33;;
75446;SDS011;64024;55.820;37.574;2024-02-28T09:28:00;3.33;;;2.63;;
75446;SDS011;64024;55.820;37.574;2024-02-28T09:30:27;8.40;;;3.45;;
75446;SDS011;64024;55.820;37.574;2024-02-28T09:32:53;4.63;;;3.03;;
75446;SDS011;64024;55.820;37.574;2024-02-28T09:35:19;4.20;;;2.30;;
75446;SDS011;64024;55.820;37.574;2024-02-28T09:37:45;5.07;;;2.70;;
75446;SDS011;64024;55.820;37.574;2024-02-28T09:40:11;5.22;;;3.53;;
75446;SDS011;64024;55.820;37.574;2024-02-28T09:42:37;3.35;;;2.72;;
75446;SDS011;64024;55.820;37.574;2024-02-28T09:45:03;5.03;;;2.33;;
75446;SDS011;64024;55.820;37.574;2024-02-28T09:47:31;4.55;;;2.88;;
75446;SDS011;64024;55.820;37.574;2024-02-28T09:49:57;4.75;;;2.65;;
75446;SDS011;64024;55.820;37.574;2024-02-28T09:52:26;4.43;;;2.60;;
75446;SDS011;64024;55.820;37.574;2024-02-28T09:54:55;5.75;;;2.90;;
75446;SDS011;64024;55.820;37.574;2024-02-28T09:57:21;5.72;;;2.55;;
75446;SDS011;64024;55.820;37.574;2024-02-28T09:59:54;5.15;;;2.47;;
75446;SDS011;64024;55.820;37.574;2024-02-28T10:02:21;3.78;;;2.60;;
75446;SDS011;64024;55.820;37.574;2024-02-28T10:04:49;4.40;;;2.35;;
75446;SDS011;64024;55.820;37.574;2024-02-28T10:07:17;7.43;;;2.90;;
75446;SDS011;64024;55.820;37.574;2024-02-28T10:09:43;4.45;;;2.30;;
75446;SDS011;64024;55.820;37.574;2024-02-28T10:12:09;5.45;;;3.28;;
75446;SDS011;64024;55.820;37.574;2024-02-28T10:14:35;5.03;;;2.58;;
75446;SDS011;64024;55.820;37.574;2024-02-28T10:17:01;5.07;;;2.58;;
75446;SDS011;64024;55.820;37.574;2024-02-28T10:19:27;3.05;;;2.10;;
75446;SDS011;64024;55.820;37.574;2024-02-28T10:21:52;6.95;;;2.45;;
75446;SDS011;64024;55.820;37.574;2024-02-28T10:24:18;3.20;;;2.22;;
75446;SDS011;64024;55.820;37.574;2024-02-28T10:26:44;4.53;;;2.67;;
75446;SDS011;64024;55.820;37.574;2024-02-28T10:29:23;4.35;;;2.13;;
75446;SDS011;64024;55.820;37.574;2024-02-28T10:31:52;3.28;;;2.05;;
75446;SDS011;64024;55.820;37.574;2024-02-28T10:34:37;4.57;;;2.47;;
75446;SDS011;64024;55.820;37.574;2024-02-28T10:37:03;5.10;;;2.28;;
75446;SDS011;64024;55.820;37.574;2024-02-28T10:39:30;3.63;;;2.20;;
75446;SDS011;64024;55.820;37.574;2024-02-28T10:41:58;4.00;;;2.63;;
75446;SDS011;64024;55.820;37.574;2024-02-28T10:44:26;4.05;;;2.45;;
75446;SDS011;64024;55.820;37.574;2024-02-28T10:46:53;3.72;;;2.15;;
75446;SDS011;64024;55.820;37.574;2024-02-28T10:49:20;3.70;;;2.30;;
75446;SDS011;64024;55.820;37.574;2024-02-28T10:51:46;4.28;;;2.20;;
75446;SDS011;64024;55.820;37.574;2024-02-28T10:54:14;4.68;;;2.28;;
75446;SDS011;64024;55.820;37.574;2024-02-28T10:56:59;3.58;;;2.38;;
75446;SDS011;64024;55.820;37.574;2024-02-28T10:59:25;3.08;;;2.00;;
75446;SDS011;64024;55.820;37.574;2024-02-28T11:01:55;5.65;;;2.30;;
75446;SDS011;64024;55.820;37.574;2024-02-28T11:04:20;4.80;;;2.45;;
75446;SDS011;64024;55.820;37.574;2024-02-28T11:06:50;4.78;;;2.47;;
75446;SDS011;64024;55.820;37.574;2024-02-28T11:09:25;5.35;;;2.20;;
75446;SDS011;64024;55.820;37.574;2024-02-28T11:11:55;3.15;;;1.95;;
75446;SDS011;64024;55.820;37.574;2024-02-28T11:14:21;3.90;;;2.63;;
75446;SDS011;64024;55.820;37.574;2024-02-28T11:17:00;3.70;;;2.25;;
75446;SDS011;64024;55.820;37.574;2024-02-28T11:19:30;3.50;;;2.50;;
75446;SDS011;64024;55.820;37.574;2024-02-28T11:22:00;3.63;;;2.50;;
75446;SDS011;64024;55.820;37.574;2024-02-28T11:24:30;3.80;;;2.42;;
75446;SDS011;64024;55.820;37.574;2024-02-28T11:26:56;3.53;;;2.63;;
75446;SDS011;64024;55.820;37.574;2024-02-28T11:29:26;4.50;;;2.50;;
75446;SDS011;64024;55.820;37.574;2024-02-28T11:31:54;3.80;;;2.20;;
75446;SDS011;64024;55.820;37.574;2024-02-28T11:34:20;3.75;;;2.47;;
75446;SDS011;64024;55.820;37.574;2024-02-28T11:36:49;3.35;;;2.08;;
75446;SDS011;64024;55.820;37.574;2024-02-28T11:39:16;2.95;;;2.20;;
75446;SDS011;64024;55.820;37.574;2024-02-28T11:41:43;4.00;;;2.63;;
75446;SDS011;64024;55.820;37.574;2024-02-28T11:44:19;3.70;;;2.47;;
75446;SDS011;64024;55.820;37.574;2024-02-28T11:46:45;3.88;;;2.33;;
75446;SDS011;64024;55.820;37.574;2024-02-28T11:49:12;3.92;;;2.60;;
75446;SDS011;64024;55.820;37.574;2024-02-28T11:51:41;3.78;;;2.25;;
75446;SDS011;64024;55.820;37.574;2024-02-28T11:54:08;4.38;;;2.35;;
75446;SDS011;64024;55.820;37.574;2024-02-28T11:56:39;3.97;;;2.50;;
75446;SDS011;64024;55.820;37.574;2024-02-28T11:59:06;4.38;;;2.47;;
75446;SDS011;64024;55.820;37.574;2024-02-28T12:04:05;5.18;;;3.33;;
75446;SDS011;64024;55.820;37.574;2024-02-28T12:06:35;4.57;;;2.60;;
75446;SDS011;64024;55.820;37.574;2024-02-28T12:09:02;4.20;;;2.22;;
75446;SDS011;64024;55.820;37.574;2024-02-28T12:11:29;5.30;;;2.67;;
75446;SDS011;64024;55.820;37.574;2024-02-28T12:13:56;3.97;;;2.50;;
75446;SDS011;64024;55.820;37.574;2024-02-28T12:16:26;3.70;;;2.13;;
75446;SDS011;64024;55.820;37.574;2024-02-28T12:18:53;5.13;;;2.45;;
75446;SDS011;64024;55.820;37.574;2024-02-28T12:21:21;4.30;;;2.65;;
75446;SDS011;64024;55.820;37.574;2024-02-28T12:23:47;4.22;;;2.63;;
75446;SDS011;64024;55.820;37.574;2024-02-28T12:26:19;4.72;;;2.65;;
75446;SDS011;64024;55.820;37.574;2024-02-28T12:28:45;5.43;;;2.97;;
75446;SDS011;64024;55.820;37.574;2024-02-28T12:31:11;4.35;;;2.42;;
75446;SDS011;64024;55.820;37.574;2024-02-28T12:33:38;4.53;;;3.10;;
75446;SDS011;64024;55.820;37.574;2024-02-28T12:36:04;5.50;;;2.75;;
75446;SDS011;64024;55.820;37.574;2024-02-28T12:38:30;4.82;;;2.55;;
75446;SDS011;64024;55.820;37.574;2024-02-28T12:40:56;3.58;;;2.20;;
75446;SDS011;64024;55.820;37.574;2024-02-28T12:43:22;3.67;;;2.40;;
75446;SDS011;64024;55.820;37.574;2024-02-28T12:48:37;5.43;;;3.17;;
75446;SDS011;64024;55.820;37.574;2024-02-28T12:51:04;7.22;;;3.63;;
75446;SDS011;64024;55.820;37.574;2024-02-28T12:53:31;3.45;;;2.60;;
75446;SDS011;64024;55.820;37.574;2024-02-28T12:55:56;6.10;;;4.10;;
75446;SDS011;64024;55.820;37.574;2024-02-28T12:58:22;6.70;;;4.07;;
75446;SDS011;64024;55.820;37.574;2024-02-28T13:00:51;6.05;;;4.03;;
75446;SDS011;64024;55.820;37.574;2024-02-28T13:03:17;6.57;;;4.57;;
75446;SDS011;64024;55.820;37.574;2024-02-28T13:05:43;6.95;;;4.85;;
75446;SDS011;64024;55.820;37.574;2024-02-28T13:08:09;7.63;;;4.47;;
75446;SDS011;64024;55.820;37.574;2024-02-28T13:10:36;6.28;;;4.93;;
75446;SDS011;64024;55.820;37.574;2024-02-28T13:13:06;8.63;;;5.43;;
75446;SDS011;64024;55.820;37.574;2024-02-28T13:15:32;7.85;;;6.15;;
75446;SDS011;64024;55.820;37.574;2024-02-28T13:17:59;6.80;;;5.03;;
75446;SDS011;64024;55.820;37.574;2024-02-28T13:20:26;8.48;;;5.05;;
75446;SDS011;64024;55.820;37.574;2024-02-28T13:22:52;5.93;;;4.63;;
75446;SDS011;64024;55.820;37.574;2024-02-28T13:25:18;5.55;;;4.32;;
75446;SDS011;64024;55.820;37.574;2024-02-28T13:27:45;6.90;;;4.43;;
75446;SDS011;64024;55.820;37.574;2024-02-28T13:30:11;23.00;;;7.00;;
75446;SDS011;64024;55.820;37.574;2024-02-28T13:32:38;7.28;;;4.60;;
75446;SDS011;64024;55.820;37.574;2024-02-28T13:35:04;7.13;;;4.53;;
75446;SDS011;64024;55.820;37.574;2024-02-28T13:37:30;9.82;;;7.20;;
75446;SDS011;64024;55.820;37.574;2024-02-28T13:39:57;11.30;;;7.03;;
75446;SDS011;64024;55.820;37.574;2024-02-28T13:42:24;7.55;;;5.15;;
75446;SDS011;64024;55.820;37.574;2024-02-28T13:44:50;6.47;;;5.03;;
75446;SDS011;64024;55.820;37.574;2024-02-28T13:47:16;7.88;;;4.40;;
75446;SDS011;64024;55.820;37.574;2024-02-28T13:49:42;7.18;;;4.30;;
75446;SDS011;64024;55.820;37.574;2024-02-28T13:52:07;4.75;;;3.60;;
75446;SDS011;64024;55.820;37.574;2024-02-28T13:54:33;6.72;;;3.67;;
75446;SDS011;64024;55.820;37.574;2024-02-28T13:57:00;7.30;;;4.53;;
75446;SDS011;64024;55.820;37.574;2024-02-28T13:59:26;7.97;;;4.15;;
75446;SDS011;64024;55.820;37.574;2024-02-28T14:01:52;6.45;;;3.65;;
75446;SDS011;64024;55.820;37.574;2024-02-28T14:04:20;4.53;;;3.28;;
75446;SDS011;64024;55.820;37.574;2024-02-28T14:06:46;5.38;;;4.20;;
75446;SDS011;64024;55.820;37.574;2024-02-28T14:09:11;7.38;;;4.22;;
75446;SDS011;64024;55.820;37.574;2024-02-28T14:11:37;4.68;;;3.70;;
75446;SDS011;64024;55.820;37.574;2024-02-28T14:14:04;4.72;;;3.28;;
75446;SDS011;64024;55.820;37.574;2024-02-28T14:16:30;4.82;;;3.30;;
75446;SDS011;64024;55.820;37.574;2024-02-28T14:18:59;4.00;;;3.30;;
75446;SDS011;64024;55.820;37.574;2024-02-28T14:21:25;4.95;;;3.33;;
75446;SDS011;64024;55.820;37.574;2024-02-28T14:23:51;6.68;;;3.00;;
75446;SDS011;64024;55.820;37.574;2024-02-28T14:26:17;5.75;;;3.50;;
75446;SDS011;64024;55.820;37.574;2024-02-28T14:28:43;4.90;;;2.85;;
75446;SDS011;64024;55.820;37.574;2024-02-28T14:31:09;3.80;;;2.80;;
75446;SDS011;64024;55.820;37.574;2024-02-28T14:33:36;4.97;;;2.60;;
75446;SDS011;64024;55.820;37.574;2024-02-28T14:36:02;3.63;;;3.03;;
75446;SDS011;64024;55.820;37.574;2024-02-28T14:38:31;5.32;;;2.85;;